Time;durP1;ratioP1;P1;durP2;ratioP2;P2;SDS_P1;SDS_P2;PMS_P1;PMS_P2;Temp;Humidity;BMP_temperature;BMP_pressure;BME280_temperature;BME280_humidity;BME280_pressure;Samples;Min_cycle;Max_cycle;Signal;HPM_P1;HPM_P2
2023/05/03 00:00:51;;;;;;;16.60;4.47;;;;;;;;;;5017377;28;20051;-53
2023/05/03 00:03:22;;;;;;;16.80;4.50;;;;;;;;;;5019842;28;20052;-55
2023/05/03 00:05:49;;;;;;;14.65;4.38;;;;;;;;;;5016089;28;20053;-53
2023/05/03 00:08:23;;;;;;;14.18;4.28;;;;;;;;;;5013989;28;22244;-54
2023/05/03 00:10:51;;;;;;;16.50;5.13;;;;;;;;;;5012172;28;20060;-56
2023/05/03 00:13:24;;;;;;;18.42;5.03;;;;;;;;;;5016888;28;20458;-49
2023/05/03 00:15:51;;;;;;;14.23;4.78;;;;;;;;;;5017075;28;20057;-49
2023/05/03 00:18:25;;;;;;;19.30;4.70;;;;;;;;;;5015718;28;20045;-49
2023/05/03 00:20:54;;;;;;;18.42;5.20;;;;;;;;;;5019212;28;20046;-52
2023/05/03 00:23:21;;;;;;;19.58;5.15;;;;;;;;;;5010121;28;20263;-48
2023/05/03 00:26:01;;;;;;;12.38;4.72;;;;;;;;;;5014262;28;20046;-47
2023/05/03 00:28:28;;;;;;;19.67;4.93;;;;;;;;;;5018794;28;20116;-50
2023/05/03 00:31:09;;;;;;;14.75;4.13;;;;;;;;;;5014816;28;20063;-47
2023/05/03 00:33:36;;;;;;;14.13;5.20;;;;;;;;;;5012707;28;20505;-45
2023/05/03 00:36:11;;;;;;;17.83;5.88;;;;;;;;;;5016332;28;20493;-44
2023/05/03 00:38:39;;;;;;;15.63;5.53;;;;;;;;;;5019973;28;20053;-49
2023/05/03 00:41:06;;;;;;;16.02;5.03;;;;;;;;;;5015788;28;20144;-65
2023/05/03 00:43:40;;;;;;;19.13;5.80;;;;;;;;;;5015160;28;20057;-59
2023/05/03 00:46:09;;;;;;;16.83;5.05;;;;;;;;;;5016631;28;20570;-59
2023/05/03 00:48:44;;;;;;;19.75;6.03;;;;;;;;;;5016157;28;20057;-60
2023/05/03 00:51:19;;;;;;;27.25;5.70;;;;;;;;;;5016449;28;20057;-59
2023/05/03 00:53:46;;;;;;;25.80;5.50;;;;;;;;;;5012071;28;20050;-59
2023/05/03 00:56:17;;;;;;;28.73;6.07;;;;;;;;;;5016356;28;20050;-60
2023/05/03 00:58:53;;;;;;;18.20;5.65;;;;;;;;;;5019597;28;20061;-60
2023/05/03 01:01:20;;;;;;;31.30;6.60;;;;;;;;;;4997822;28;20316;-60
2023/05/03 01:03:54;;;;;;;21.35;5.90;;;;;;;;;;5012503;28;20493;-60
2023/05/03 01:06:30;;;;;;;18.50;5.82;;;;;;;;;;5014104;28;20084;-60
2023/05/03 01:09:11;;;;;;;19.75;5.57;;;;;;;;;;5005260;28;20058;-53
2023/05/03 01:11:45;;;;;;;13.25;4.82;;;;;;;;;;5009322;28;20064;-58
2023/05/03 01:14:28;;;;;;;16.15;6.00;;;;;;;;;;5017380;28;20042;-58
2023/05/03 01:16:58;;;;;;;19.13;5.32;;;;;;;;;;5011805;28;20605;-57
2023/05/03 01:19:34;;;;;;;16.15;5.68;;;;;;;;;;5015493;28;20061;-61
2023/05/03 01:22:10;;;;;;;15.95;5.40;;;;;;;;;;5013272;28;20053;-60
2023/05/03 01:24:54;;;;;;;18.38;4.60;;;;;;;;;;4995041;28;20058;-61
2023/05/03 01:27:21;;;;;;;13.73;5.25;;;;;;;;;;4995885;28;20049;-53
2023/05/03 01:29:55;;;;;;;16.98;5.78;;;;;;;;;;4993849;28;20533;-51
2023/05/03 01:32:34;;;;;;;24.45;5.63;;;;;;;;;;4995402;28;20101;-50
2023/05/03 01:35:08;;;;;;;32.30;5.55;;;;;;;;;;4992804;28;21735;-54
2023/05/03 01:37:41;;;;;;;14.35;4.95;;;;;;;;;;4993102;28;20440;-59
2023/05/03 01:40:10;;;;;;;20.75;5.65;;;;;;;;;;4995767;28;20073;-46
2023/05/03 01:42:44;;;;;;;17.67;6.10;;;;;;;;;;4987795;28;20088;-51
2023/05/03 01:45:12;;;;;;;18.92;5.65;;;;;;;;;;4985018;28;20053;-45
2023/05/03 01:47:45;;;;;;;28.92;6.40;;;;;;;;;;4995355;28;20543;-46
2023/05/03 01:50:13;;;;;;;26.05;6.80;;;;;;;;;;4994273;28;20056;-47
2023/05/03 01:52:40;;;;;;;22.02;6.50;;;;;;;;;;4992048;28;20092;-47
2023/05/03 01:55:14;;;;;;;21.33;6.55;;;;;;;;;;4992876;28;20058;-68
2023/05/03 01:57:42;;;;;;;21.92;6.95;;;;;;;;;;4986938;28;20054;-67
2023/05/03 02:00:15;;;;;;;17.05;5.55;;;;;;;;;;4995978;28;20054;-67
2023/05/03 02:02:43;;;;;;;;;;;;;;;;;;4996111;28;20196;-67
2023/05/03 02:05:10;;;;;;;23.08;6.55;;;;;;;;;;4996097;28;19976;-61
2023/05/03 02:07:44;;;;;;;25.08;6.50;;;;;;;;;;4996240;28;20061;-56
2023/05/03 02:10:13;;;;;;;27.73;5.93;;;;;;;;;;4995865;28;20686;-48
2023/05/03 02:12:47;;;;;;;28.65;6.60;;;;;;;;;;4998201;28;20524;-49
2023/05/03 02:15:15;;;;;;;29.90;6.15;;;;;;;;;;4989078;28;20046;-52
2023/05/03 02:17:44;;;;;;;17.45;5.95;;;;;;;;;;4992097;28;20060;-47
2023/05/03 02:20:18;;;;;;;23.13;6.07;;;;;;;;;;4992340;28;20072;-50
2023/05/03 02:22:45;;;;;;;24.23;6.25;;;;;;;;;;4999550;28;20878;-45
2023/05/03 02:25:25;;;;;;;21.88;5.65;;;;;;;;;;4999287;28;20046;-49
2023/05/03 02:27:53;;;;;;;22.27;5.93;;;;;;;;;;4994506;28;20117;-49
2023/05/03 02:30:28;;;;;;;21.88;6.30;;;;;;;;;;5000326;28;20137;-48
2023/05/03 02:32:55;;;;;;;16.70;5.50;;;;;;;;;;4992615;28;21403;-46
2023/05/03 02:35:22;;;;;;;17.00;5.55;;;;;;;;;;4998688;28;20512;-59
2023/05/03 02:37:56;;;;;;;18.83;5.13;;;;;;;;;;4994832;28;20066;-61
2023/05/03 02:40:23;;;;;;;24.52;5.47;;;;;;;;;;4997444;28;20056;-61
2023/05/03 02:42:57;;;;;;;19.00;6.10;;;;;;;;;;4996168;28;20058;-61
2023/05/03 02:45:24;;;;;;;26.10;5.57;;;;;;;;;;4998279;28;20100;-61
2023/05/03 02:47:52;;;;;;;16.05;5.50;;;;;;;;;;4992139;28;20053;-62
2023/05/03 02:50:26;;;;;;;17.90;4.72;;;;;;;;;;4996447;28;20046;-62
2023/05/03 02:52:53;;;;;;;;;;;;;;;;;;4997862;28;20509;-51
2023/05/03 02:55:20;;;;;;;21.27;5.28;;;;;;;;;;4997799;28;20407;-68
2023/05/03 02:57:55;;;;;;;11.57;4.70;;;;;;;;;;4979419;28;20409;-67
2023/05/03 03:00:22;;;;;;;;;;;;;;;;;;4993557;28;20144;-68
2023/05/03 03:02:55;;;;;;;18.25;4.70;;;;;;;;;;4994275;28;19929;-68
2023/05/03 03:05:22;;;;;;;19.42;6.47;;;;;;;;;;4995493;28;20058;-68
2023/05/03 03:07:50;;;;;;;25.17;5.63;;;;;;;;;;4997250;28;20070;-68
2023/05/03 03:10:23;;;;;;;20.83;6.00;;;;;;;;;;4996615;28;20051;-68
2023/05/03 03:12:50;;;;;;;22.60;6.05;;;;;;;;;;4997287;28;20072;-67
2023/05/03 03:15:18;;;;;;;27.40;6.68;;;;;;;;;;4995340;28;20064;-68
2023/05/03 03:17:56;;;;;;;32.05;6.15;;;;;;;;;;4997564;28;20065;-67
2023/05/03 03:20:23;;;;;;;15.30;4.50;;;;;;;;;;4995172;28;20109;-69
2023/05/03 03:22:57;;;;;;;41.92;7.05;;;;;;;;;;5001035;28;20060;-49
2023/05/03 03:25:38;;;;;;;24.13;4.70;;;;;;;;;;5015545;28;20140;-48
2023/05/03 03:28:11;;;;;;;20.20;5.40;;;;;;;;;;5016705;28;20576;-47
2023/05/03 03:30:38;;;;;;;14.48;5.20;;;;;;;;;;5008886;28;20507;-51
2023/05/03 03:33:05;;;;;;;21.42;5.07;;;;;;;;;;5013470;28;20064;-48
2023/05/03 03:35:40;;;;;;;23.10;5.40;;;;;;;;;;5009364;28;20135;-51
2023/05/03 03:38:07;;;;;;;18.45;5.85;;;;;;;;;;4992678;28;20148;-45
2023/05/03 03:40:40;;;;;;;21.80;6.20;;;;;;;;;;5013509;28;20054;-63
2023/05/03 03:43:14;;;;;;;33.35;7.47;;;;;;;;;;5016326;28;20058;-62
2023/05/03 03:45:49;;;;;;;37.97;6.72;;;;;;;;;;5013586;28;20060;-63
2023/05/03 03:48:16;;;;;;;23.95;5.28;;;;;;;;;;5016831;28;20143;-63
2023/05/03 03:50:43;;;;;;;20.38;4.63;;;;;;;;;;5014849;28;20480;-57
2023/05/03 03:53:17;;;;;;;20.02;4.22;;;;;;;;;;5019523;28;20509;-61
2023/05/03 03:55:44;;;;;;;28.75;5.85;;;;;;;;;;5015700;28;20049;-61
2023/05/03 03:58:18;;;;;;;25.38;5.65;;;;;;;;;;5015999;28;20525;-61
2023/05/03 04:00:46;;;;;;;17.77;4.75;;;;;;;;;;5012876;28;20059;-61
2023/05/03 04:03:13;;;;;;;18.83;5.15;;;;;;;;;;5009550;28;20077;-61
2023/05/03 04:05:46;;;;;;;11.02;4.53;;;;;;;;;;5008936;28;20053;-61
2023/05/03 04:08:13;;;;;;;12.95;4.65;;;;;;;;;;5014008;28;22102;-61
2023/05/03 04:10:47;;;;;;;25.23;4.85;;;;;;;;;;5007542;28;20440;-65
2023/05/03 04:13:15;;;;;;;21.15;6.25;;;;;;;;;;5008192;28;20053;-65
2023/05/03 04:15:42;;;;;;;10.20;4.03;;;;;;;;;;5014967;28;20088;-65
2023/05/03 04:18:16;;;;;;;13.90;3.72;;;;;;;;;;5012262;28;20073;-65
2023/05/03 04:20:43;;;;;;;11.90;3.75;;;;;;;;;;5006622;28;20053;-68
2023/05/03 04:23:24;;;;;;;11.45;3.45;;;;;;;;;;5016890;28;20421;-68
2023/05/03 04:25:51;;;;;;;14.40;3.72;;;;;;;;;;5012865;28;20061;-68
2023/05/03 04:28:28;;;;;;;12.60;3.67;;;;;;;;;;5013235;28;20069;-50
2023/05/03 04:30:57;;;;;;;10.35;3.60;;;;;;;;;;5010297;28;20061;-56
2023/05/03 04:33:28;;;;;;;9.27;3.20;;;;;;;;;;5012388;28;20519;-50
2023/05/03 04:36:03;;;;;;;12.88;3.45;;;;;;;;;;5013881;28;20053;-52
2023/05/03 04:38:30;;;;;;;7.95;2.95;;;;;;;;;;5015149;28;20145;-48
2023/05/03 04:41:05;;;;;;;12.30;3.15;;;;;;;;;;5012497;28;20713;-53
2023/05/03 04:43:33;;;;;;;13.52;3.17;;;;;;;;;;5009716;28;20052;-55
2023/05/03 04:46:02;;;;;;;10.93;3.08;;;;;;;;;;5011982;28;20062;-52
2023/05/03 04:48:35;;;;;;;11.60;2.95;;;;;;;;;;5010241;28;20061;-60
2023/05/03 04:51:03;;;;;;;10.23;3.28;;;;;;;;;;5011019;28;20148;-60
2023/05/03 04:53:30;;;;;;;9.88;3.00;;;;;;;;;;5012655;28;20068;-61
2023/05/03 04:56:03;;;;;;;12.10;2.92;;;;;;;;;;5012387;28;20053;-61
2023/05/03 04:58:30;;;;;;;8.77;2.75;;;;;;;;;;5013252;28;20076;-60
2023/05/03 05:01:05;;;;;;;10.88;3.25;;;;;;;;;;5013879;28;20064;-63
2023/05/03 05:03:33;;;;;;;7.68;3.40;;;;;;;;;;5010692;28;20053;-47
2023/05/03 05:06:00;;;;;;;8.75;3.42;;;;;;;;;;5012478;28;20054;-56
2023/05/03 05:08:34;;;;;;;13.77;3.42;;;;;;;;;;5015404;28;20548;-59
2023/05/03 05:11:05;;;;;;;10.52;3.45;;;;;;;;;;5016198;28;20141;-52
2023/05/03 05:13:32;;;;;;;15.73;3.60;;;;;;;;;;5015724;28;20061;-49
2023/05/03 05:16:05;;;;;;;11.20;4.00;;;;;;;;;;5022615;28;20527;-56
2023/05/03 05:18:33;;;;;;;14.23;3.70;;;;;;;;;;5021245;28;20572;-52
2023/05/03 05:21:07;;;;;;;12.40;3.22;;;;;;;;;;5022565;28;20464;-60
2023/05/03 05:23:47;;;;;;;12.10;3.78;;;;;;;;;;5020220;28;20056;-61
2023/05/03 05:26:21;;;;;;;8.85;3.25;;;;;;;;;;5020124;28;20054;-61
2023/05/03 05:28:48;;;;;;;8.80;2.92;;;;;;;;;;5021851;28;20158;-60
2023/05/03 05:31:15;;;;;;;8.10;2.97;;;;;;;;;;5022245;28;20048;-60
2023/05/03 05:33:49;;;;;;;9.90;3.03;;;;;;;;;;5018820;28;20089;-57
2023/05/03 05:36:17;;;;;;;9.00;3.00;;;;;;;;;;5022136;28;20564;-54
2023/05/03 05:38:50;;;;;;;5.72;2.90;;;;;;;;;;5020606;28;20132;-56
2023/05/03 05:41:18;;;;;;;7.72;3.05;;;;;;;;;;5020609;28;20483;-58
2023/05/03 05:43:45;;;;;;;13.95;3.72;;;;;;;;;;5017943;28;20058;-56
2023/05/03 05:46:20;;;;;;;10.35;3.20;;;;;;;;;;5019013;28;20557;-55
2023/05/03 05:48:53;;;;;;;9.55;3.05;;;;;;;;;;5018488;28;20127;-56
2023/05/03 05:51:29;;;;;;;15.10;3.25;;;;;;;;;;5017751;28;20255;-45
2023/05/03 05:53:57;;;;;;;9.70;3.15;;;;;;;;;;5020349;28;20074;-44
2023/05/03 05:56:25;;;;;;;9.45;3.10;;;;;;;;;;5018977;28;20054;-45
2023/05/03 05:58:59;;;;;;;10.68;2.92;;;;;;;;;;5018964;28;20047;-58
2023/05/03 06:01:26;;;;;;;6.70;3.03;;;;;;;;;;5019972;28;20057;-59
2023/05/03 06:04:00;;;;;;;5.90;2.80;;;;;;;;;;5019411;28;20061;-51
2023/05/03 06:06:27;;;;;;;6.95;2.30;;;;;;;;;;5019034;28;20132;-53
2023/05/03 06:08:55;;;;;;;14.27;2.95;;;;;;;;;;5022703;28;20057;-48
2023/05/03 06:11:43;;;;;;;5.05;2.30;;;;;;;;;;5022041;28;20064;-50
2023/05/03 06:14:11;;;;;;;11.07;2.83;;;;;;;;;;5018881;28;20050;-48
2023/05/03 06:16:44;;;;;;;4.95;2.38;;;;;;;;;;5020795;28;20057;-51
2023/05/03 06:19:12;;;;;;;7.40;2.22;;;;;;;;;;5021546;28;20049;-61
2023/05/03 06:21:39;;;;;;;9.23;2.70;;;;;;;;;;5016349;28;20052;-61
2023/05/03 06:24:19;;;;;;;8.52;2.40;;;;;;;;;;5008960;28;20058;-61
2023/05/03 06:26:47;;;;;;;8.25;2.50;;;;;;;;;;5000081;28;20062;-60
2023/05/03 06:29:28;;;;;;;3.60;1.92;;;;;;;;;;4996660;28;20053;-48
2023/05/03 06:31:55;;;;;;;7.10;2.42;;;;;;;;;;5001357;28;20517;-58
2023/05/03 06:34:36;;;;;;;5.15;2.00;;;;;;;;;;5000561;28;20053;-58
2023/05/03 06:37:16;;;;;;;7.63;2.10;;;;;;;;;;4986665;28;20087;-57
2023/05/03 06:39:50;;;;;;;5.03;1.75;;;;;;;;;;5000246;28;20455;-57
2023/05/03 06:42:18;;;;;;;7.32;2.35;;;;;;;;;;5002233;28;20045;-57
2023/05/03 06:44:45;;;;;;;5.20;2.20;;;;;;;;;;4999722;28;20085;-58
2023/05/03 06:47:20;;;;;;;5.80;2.20;;;;;;;;;;4998305;28;20129;-59
2023/05/03 06:49:53;;;;;;;5.53;2.05;;;;;;;;;;4999778;28;20497;-57
2023/05/03 06:52:28;;;;;;;14.40;2.72;;;;;;;;;;5000050;28;20053;-59
2023/05/03 06:55:01;;;;;;;4.50;1.80;;;;;;;;;;4998958;28;20129;-58
2023/05/03 06:57:35;;;;;;;5.50;1.80;;;;;;;;;;4997193;28;20058;-47
2023/05/03 07:00:10;;;;;;;6.90;2.10;;;;;;;;;;5000998;28;20072;-61
2023/05/03 07:02:37;;;;;;;4.78;1.88;;;;;;;;;;4996382;28;20144;-62
2023/05/03 07:05:04;;;;;;;3.78;1.73;;;;;;;;;;5001508;28;20145;-62
2023/05/03 07:07:38;;;;;;;2.65;1.77;;;;;;;;;;4997192;28;20152;-62
2023/05/03 07:10:06;;;;;;;4.45;1.73;;;;;;;;;;4997054;28;20056;-62
2023/05/03 07:12:40;;;;;;;5.72;1.70;;;;;;;;;;4997502;28;20081;-62
2023/05/03 07:15:07;;;;;;;6.68;1.67;;;;;;;;;;5000037;28;20125;-48
2023/05/03 07:17:34;;;;;;;5.95;1.75;;;;;;;;;;4998253;28;20120;-48
2023/05/03 07:20:08;;;;;;;6.40;2.03;;;;;;;;;;4996315;28;20507;-52
2023/05/03 07:22:35;;;;;;;3.63;1.80;;;;;;;;;;5000032;28;20112;-51
2023/05/03 07:25:22;;;;;;;4.05;1.65;;;;;;;;;;4998762;28;20051;-56
2023/05/03 07:27:49;;;;;;;4.47;1.63;;;;;;;;;;4999124;28;20513;-63
2023/05/03 07:30:23;;;;;;;6.18;1.92;;;;;;;;;;4982486;28;20421;-65
2023/05/03 07:32:51;;;;;;;5.28;1.58;;;;;;;;;;4999876;28;20045;-64
2023/05/03 07:35:18;;;;;;;8.82;1.73;;;;;;;;;;4997818;28;20084;-64
2023/05/03 07:37:52;;;;;;;2.92;1.40;;;;;;;;;;4998052;28;20113;-64
2023/05/03 07:40:20;;;;;;;3.55;1.58;;;;;;;;;;4997289;28;20050;-64
2023/05/03 07:42:54;;;;;;;4.32;1.45;;;;;;;;;;4995088;28;20050;-50
2023/05/03 07:45:21;;;;;;;3.40;1.38;;;;;;;;;;5000674;28;20218;-51
2023/05/03 07:47:48;;;;;;;3.17;1.50;;;;;;;;;;4997628;28;20528;-47
2023/05/03 07:50:22;;;;;;;3.67;1.23;;;;;;;;;;4996805;28;20065;-46
2023/05/03 07:52:50;;;;;;;3.33;1.40;;;;;;;;;;4999049;28;20049;-55
2023/05/03 07:55:25;;;;;;;2.88;1.27;;;;;;;;;;4998991;28;20565;-61
2023/05/03 07:57:57;;;;;;;4.15;1.30;;;;;;;;;;5000062;28;20058;-56
2023/05/03 08:00:25;;;;;;;2.22;1.20;;;;;;;;;;4999069;28;20042;-58
2023/05/03 08:03:02;;;;;;;1.38;1.05;;;;;;;;;;4998081;28;20057;-57
2023/05/03 08:05:29;;;;;;;1.63;1.02;;;;;;;;;;4996942;28;20460;-56
2023/05/03 08:08:04;;;;;;;2.22;1.05;;;;;;;;;;4997874;28;20054;-55
2023/05/03 08:10:36;;;;;;;3.10;1.33;;;;;;;;;;4995866;28;20557;-56
2023/05/03 08:13:11;;;;;;;3.42;1.42;;;;;;;;;;4997748;28;20061;-50
2023/05/03 08:15:38;;;;;;;1.40;0.95;;;;;;;;;;4997679;28;20056;-46
2023/05/03 08:18:06;;;;;;;1.55;1.10;;;;;;;;;;4996198;28;20520;-51
2023/05/03 08:20:41;;;;;;;1.50;1.02;;;;;;;;;;4997964;28;20053;-46
2023/05/03 08:23:15;;;;;;;2.88;0.90;;;;;;;;;;4998362;28;20052;-53
2023/05/03 08:25:55;;;;;;;1.67;0.65;;;;;;;;;;5018586;28;20059;-47
2023/05/03 08:28:22;;;;;;;1.05;0.70;;;;;;;;;;5013953;28;20101;-49
2023/05/03 08:30:57;;;;;;;1.10;0.50;;;;;;;;;;5018114;28;20148;-51
2023/05/03 08:33:30;;;;;;;0.95;0.65;;;;;;;;;;5016804;28;20399;-53
2023/05/03 08:36:04;;;;;;;1.85;0.90;;;;;;;;;;5021669;28;20054;-59
2023/05/03 08:38:32;;;;;;;0.95;0.55;;;;;;;;;;5017742;28;20078;-56
2023/05/03 08:41:04;;;;;;;2.35;0.98;;;;;;;;;;5016356;28;20152;-53
2023/05/03 08:43:39;;;;;;;1.08;0.80;;;;;;;;;;5016933;28;20463;-54
2023/05/03 08:46:11;;;;;;;1.30;0.75;;;;;;;;;;5009033;28;20145;-55
2023/05/03 08:48:47;;;;;;;1.73;1.15;;;;;;;;;;5020652;28;20107;-60
2023/05/03 08:51:15;;;;;;;1.60;0.63;;;;;;;;;;5021965;28;20065;-62
2023/05/03 08:53:43;;;;;;;2.17;0.88;;;;;;;;;;5021860;28;20460;-63
2023/05/03 08:56:23;;;;;;;3.13;0.77;;;;;;;;;;5020469;28;20483;-63
2023/05/03 08:58:50;;;;;;;1.10;0.70;;;;;;;;;;5023575;28;20379;-63
2023/05/03 09:01:23;;;;;;;5.13;1.13;;;;;;;;;;5016502;28;20064;-63
2023/05/03 09:03:51;;;;;;;1.95;0.90;;;;;;;;;;5021160;28;20053;-62
2023/05/03 09:06:20;;;;;;;1.60;0.90;;;;;;;;;;5021126;28;20518;-47
2023/05/03 09:08:54;;;;;;;3.08;0.65;;;;;;;;;;5019808;28;20505;-47
2023/05/03 09:11:26;;;;;;;0.20;0.20;;;;;;;;;;5020968;28;20461;-60
2023/05/03 09:14:10;;;;;;;0.68;0.47;;;;;;;;;;5022309;28;20603;-60
2023/05/03 09:16:39;;;;;;;0.93;0.60;;;;;;;;;;5020357;28;20053;-59
2023/05/03 09:19:17;;;;;;;1.70;0.45;;;;;;;;;;5020587;28;20096;-60
2023/05/03 09:21:49;;;;;;;1.83;0.60;;;;;;;;;;5023647;28;20088;-59
2023/05/03 09:24:29;;;;;;;2.90;0.57;;;;;;;;;;5021770;28;20101;-59
2023/05/03 09:26:57;;;;;;;1.75;0.85;;;;;;;;;;5018936;28;20058;-49
2023/05/03 09:29:33;;;;;;;2.03;0.80;;;;;;;;;;5020456;28;20060;-48
2023/05/03 09:32:01;;;;;;;0.73;0.40;;;;;;;;;;5018239;28;20080;-46
2023/05/03 09:34:28;;;;;;;0.90;0.77;;;;;;;;;;5015798;28;20045;-47
2023/05/03 09:37:02;;;;;;;0.30;0.30;;;;;;;;;;5021221;28;20421;-49
2023/05/03 09:39:30;;;;;;;4.55;0.80;;;;;;;;;;5020079;28;20538;-48
2023/05/03 09:42:13;;;;;;;1.85;0.90;;;;;;;;;;5019297;28;20056;-50
2023/05/03 09:44:47;;;;;;;1.65;0.60;;;;;;;;;;5017387;28;20149;-56
2023/05/03 09:47:24;;;;;;;6.22;0.63;;;;;;;;;;5007585;28;20064;-59
2023/05/03 09:49:51;;;;;;;1.08;0.40;;;;;;;;;;5020778;28;20480;-56
2023/05/03 09:52:19;;;;;;;1.20;0.70;;;;;;;;;;5006132;28;20081;-58
2023/05/03 09:54:53;;;;;;;1.38;0.60;;;;;;;;;;5014368;28;20565;-57
2023/05/03 09:57:20;;;;;;;3.47;0.90;;;;;;;;;;5019473;28;20535;-58
2023/05/03 09:59:54;;;;;;;1.15;0.85;;;;;;;;;;5020894;28;20058;-57
2023/05/03 10:02:22;;;;;;;1.17;0.75;;;;;;;;;;5001776;28;20075;-60
2023/05/03 10:04:57;;;;;;;0.98;0.63;;;;;;;;;;5019586;28;20119;-59
2023/05/03 10:07:26;;;;;;;1.50;0.70;;;;;;;;;;5019600;28;20088;-59
2023/05/03 10:09:56;;;;;;;1.08;0.60;;;;;;;;;;5019230;28;20093;-58
2023/05/03 10:12:33;;;;;;;0.63;0.57;;;;;;;;;;5010630;28;20050;-54
2023/05/03 10:15:02;;;;;;;1.27;0.60;;;;;;;;;;5018764;28;20145;-57
2023/05/03 10:17:37;;;;;;;3.25;0.60;;;;;;;;;;5017152;28;20085;-59
2023/05/03 10:20:20;;;;;;;1.08;0.63;;;;;;;;;;5019845;28;20076;-60
2023/05/03 10:23:02;;;;;;;3.47;0.77;;;;;;;;;;5020148;28;20060;-60
2023/05/03 10:26:21;;;;;;;2.17;0.55;;;;;;;;;;5011930;28;20137;-60
2023/05/03 10:28:48;;;;;;;2.55;0.52;;;;;;;;;;5020729;28;20084;-60
2023/05/03 10:31:41;;;;;;;0.65;0.45;;;;;;;;;;5020474;28;20057;-60
2023/05/03 10:34:19;;;;;;;1.77;0.55;;;;;;;;;;5015027;28;20050;-61
2023/05/03 10:36:53;;;;;;;0.98;0.57;;;;;;;;;;5014886;28;20103;-60
2023/05/03 10:39:21;;;;;;;1.35;0.65;;;;;;;;;;5020462;28;20096;-61
2023/05/03 10:42:07;;;;;;;0.90;0.60;;;;;;;;;;5010173;28;20061;-61
2023/05/03 10:44:38;;;;;;;0.93;0.57;;;;;;;;;;5019940;28;20056;-61
2023/05/03 10:47:39;;;;;;;1.73;0.70;;;;;;;;;;5003324;28;20071;-61
2023/05/03 10:50:16;;;;;;;1.08;0.55;;;;;;;;;;5018807;28;20050;-57
2023/05/03 10:52:50;;;;;;;0.68;0.45;;;;;;;;;;5019335;28;20058;-57
2023/05/03 10:55:18;;;;;;;2.45;0.60;;;;;;;;;;5017497;28;20063;-58
2023/05/03 10:57:46;;;;;;;1.50;0.40;;;;;;;;;;5016957;28;20521;-58
2023/05/03 11:00:30;;;;;;;0.75;0.60;;;;;;;;;;5008850;28;20053;-59
2023/05/03 11:03:15;;;;;;;1.73;0.68;;;;;;;;;;5011411;28;20053;-50
2023/05/03 11:05:50;;;;;;;1.60;0.63;;;;;;;;;;5018085;28;20089;-49
2023/05/03 11:08:18;;;;;;;2.67;0.90;;;;;;;;;;5016996;28;20155;-52
2023/05/03 11:10:47;;;;;;;1.70;0.60;;;;;;;;;;5020013;28;20511;-50
2023/05/03 11:13:20;;;;;;;2.17;0.60;;;;;;;;;;5017787;28;20053;-52
2023/05/03 11:15:48;;;;;;;1.05;0.65;;;;;;;;;;5018598;28;20058;-51
2023/05/03 11:18:24;;;;;;;1.00;0.55;;;;;;;;;;5017540;28;20115;-61
2023/05/03 11:20:52;;;;;;;0.65;0.45;;;;;;;;;;5016238;28;20505;-61
2023/05/03 11:23:24;;;;;;;0.88;0.40;;;;;;;;;;5017169;28;20121;-60
2023/05/03 11:26:08;;;;;;;1.20;0.77;;;;;;;;;;4980597;28;20050;-61
2023/05/03 11:28:42;;;;;;;1.40;0.88;;;;;;;;;;4998346;28;20085;-55
2023/05/03 11:31:15;;;;;;;2.20;0.85;;;;;;;;;;4999648;28;20276;-61
2023/05/03 11:33:50;;;;;;;1.65;0.65;;;;;;;;;;5000071;28;20068;-61
2023/05/03 11:36:26;;;;;;;0.75;0.70;;;;;;;;;;4997692;28;20478;-61
2023/05/03 11:38:53;;;;;;;2.20;0.68;;;;;;;;;;4999582;28;20576;-61
2023/05/03 11:41:21;;;;;;;2.70;0.50;;;;;;;;;;4998082;28;20133;-61
2023/05/03 11:43:54;;;;;;;0.75;0.38;;;;;;;;;;4986570;28;20046;-61
2023/05/03 11:46:41;;;;;;;0.43;0.40;;;;;;;;;;4999272;28;20493;-62
2023/05/03 11:49:23;;;;;;;0.47;0.45;;;;;;;;;;4984149;28;20054;-63
2023/05/03 11:51:51;;;;;;;0.88;0.57;;;;;;;;;;4998127;28;20053;-62
2023/05/03 11:54:26;;;;;;;1.30;0.73;;;;;;;;;;4995822;28;20057;-63
2023/05/03 11:56:57;;;;;;;1.75;0.60;;;;;;;;;;4999773;28;20058;-59
2023/05/03 11:59:38;;;;;;;0.63;0.45;;;;;;;;;;5000515;28;20515;-60
2023/05/03 12:02:08;;;;;;;1.58;0.50;;;;;;;;;;4994854;28;20533;-60
2023/05/03 12:04:42;;;;;;;1.00;0.52;;;;;;;;;;4996784;28;20054;-60
2023/05/03 12:07:12;;;;;;;0.50;0.50;;;;;;;;;;4998606;28;20059;-60
2023/05/03 12:09:44;;;;;;;0.40;0.30;;;;;;;;;;4999623;28;20054;-60
2023/05/03 12:12:39;;;;;;;3.30;0.45;;;;;;;;;;4998403;28;20057;-60
2023/05/03 12:15:12;;;;;;;1.33;0.55;;;;;;;;;;4999235;28;20050;-61
2023/05/03 12:17:48;;;;;;;3.20;0.60;;;;;;;;;;4999177;28;20054;-61
2023/05/03 12:20:18;;;;;;;0.50;0.50;;;;;;;;;;4998398;28;20054;-61
2023/05/03 12:23:12;;;;;;;0.65;0.50;;;;;;;;;;4999027;28;20050;-61
2023/05/03 12:25:53;;;;;;;1.42;0.60;;;;;;;;;;5016448;28;21562;-60
2023/05/03 12:28:31;;;;;;;2.03;0.32;;;;;;;;;;5016290;28;20072;-59
2023/05/03 12:31:05;;;;;;;0.68;0.47;;;;;;;;;;5016951;28;20118;-58
2023/05/03 12:33:33;;;;;;;0.38;0.30;;;;;;;;;;5017528;28;20056;-57
2023/05/03 12:36:10;;;;;;;0.90;0.52;;;;;;;;;;5018373;28;20559;-59
2023/05/03 12:38:40;;;;;;;0.55;0.50;;;;;;;;;;5017552;28;20141;-59
2023/05/03 12:41:16;;;;;;;1.25;0.55;;;;;;;;;;5017732;28;20072;-57
2023/05/03 12:44:04;;;;;;;9.13;0.80;;;;;;;;;;5016774;28;20045;-63
2023/05/03 12:46:38;;;;;;;1.10;0.30;;;;;;;;;;5015200;28;20062;-63
2023/05/03 12:49:05;;;;;;;1.17;0.65;;;;;;;;;;5019687;28;20049;-63
2023/05/03 12:51:35;;;;;;;2.25;0.38;;;;;;;;;;5016966;28;20506;-63
2023/05/03 12:54:10;;;;;;;1.27;0.47;;;;;;;;;;5016636;28;20092;-63
2023/05/03 12:56:38;;;;;;;0.50;0.50;;;;;;;;;;5016013;28;20136;-51
2023/05/03 12:59:14;;;;;;;0.50;0.40;;;;;;;;;;5017338;28;20104;-50
2023/05/03 13:01:44;;;;;;;0.52;0.50;;;;;;;;;;5017289;28;20064;-53
2023/05/03 13:04:22;;;;;;;0.82;0.50;;;;;;;;;;5018251;28;20049;-55
2023/05/03 13:07:13;;;;;;;0.77;0.60;;;;;;;;;;5015967;28;20142;-49
2023/05/03 13:09:55;;;;;;;0.90;0.80;;;;;;;;;;5020712;28;20049;-50
2023/05/03 13:12:26;;;;;;;0.40;0.30;;;;;;;;;;5015784;28;20057;-61
2023/05/03 13:15:02;;;;;;;0.45;0.40;;;;;;;;;;5016705;28;20562;-61
2023/05/03 13:17:30;;;;;;;1.00;0.40;;;;;;;;;;5014564;28;20053;-61
2023/05/03 13:19:58;;;;;;;0.85;0.60;;;;;;;;;;5014596;28;20072;-61
2023/05/03 13:22:33;;;;;;;0.38;0.38;;;;;;;;;;5019497;28;20054;-62
2023/05/03 13:25:07;;;;;;;0.20;0.20;;;;;;;;;;5018774;28;21165;-61
2023/05/03 13:27:49;;;;;;;0.57;0.40;;;;;;;;;;5017468;28;20050;-60
2023/05/03 13:30:16;;;;;;;0.52;0.50;;;;;;;;;;5015999;28;20079;-60
2023/05/03 13:32:51;;;;;;;0.45;0.45;;;;;;;;;;5014911;28;20077;-61
2023/05/03 13:35:19;;;;;;;0.95;0.45;;;;;;;;;;5018078;28;20145;-61
2023/05/03 13:37:46;;;;;;;0.65;0.40;;;;;;;;;;5023681;28;20494;-59
2023/05/03 13:40:19;;;;;;;1.90;0.80;;;;;;;;;;5022132;28;20128;-60
2023/05/03 13:42:47;;;;;;;1.08;0.52;;;;;;;;;;5006676;28;20049;-59
2023/05/03 13:45:21;;;;;;;2.50;0.63;;;;;;;;;;5020665;28;20064;-58
2023/05/03 13:47:48;;;;;;;0.55;0.55;;;;;;;;;;5020420;28;20576;-57
2023/05/03 13:50:35;;;;;;;4.05;0.38;;;;;;;;;;5018979;28;20072;-51
2023/05/03 13:53:08;;;;;;;2.38;0.80;;;;;;;;;;5021714;28;20112;-60
2023/05/03 13:55:35;;;;;;;2.80;0.60;;;;;;;;;;5020696;28;20493;-60
2023/05/03 13:58:09;;;;;;;1.50;0.50;;;;;;;;;;5019366;28;20068;-61
2023/05/03 14:00:37;;;;;;;4.30;1.40;;;;;;;;;;5020964;28;20089;-60
2023/05/03 14:03:05;;;;;;;6.25;1.50;;;;;;;;;;5019888;28;20132;-61
2023/05/03 14:05:40;;;;;;;2.67;0.90;;;;;;;;;;5020112;28;20061;-60
2023/05/03 14:08:07;;;;;;;0.50;0.47;;;;;;;;;;5020246;28;20151;-60
2023/05/03 14:10:41;;;;;;;0.68;0.60;;;;;;;;;;5021287;28;20573;-63
2023/05/03 14:13:08;;;;;;;;;;;;;;;;;;5021144;28;20517;-52
2023/05/03 14:15:42;;;;;;;1.42;0.60;;;;;;;;;;5020635;28;20424;-55
2023/05/03 14:18:17;;;;;;;0.95;0.60;;;;;;;;;;5016672;28;20045;-49
2023/05/03 14:20:49;;;;;;;4.65;0.60;;;;;;;;;;5019118;28;20053;-51
2023/05/03 14:23:23;;;;;;;1.13;0.57;;;;;;;;;;5016681;28;20568;-51
2023/05/03 14:25:56;;;;;;;1.55;0.77;;;;;;;;;;5019083;28;20488;-62
2023/05/03 14:28:30;;;;;;;0.63;0.50;;;;;;;;;;5016093;28;20053;-50
2023/05/03 14:30:57;;;;;;;0.55;0.40;;;;;;;;;;5018007;28;20064;-50
2023/05/03 14:33:25;;;;;;;3.42;0.43;;;;;;;;;;5019146;28;20055;-52
2023/05/03 14:35:59;;;;;;;0.85;0.57;;;;;;;;;;5019279;28;20061;-51
2023/05/03 14:38:33;;;;;;;1.70;0.50;;;;;;;;;;5018333;28;20057;-63
2023/05/03 14:41:00;;;;;;;0.82;0.40;;;;;;;;;;5017110;28;20113;-58
2023/05/03 14:43:27;;;;;;;4.20;0.73;;;;;;;;;;5019779;28;20054;-59
2023/05/03 14:46:00;;;;;;;0.93;0.50;;;;;;;;;;5014705;28;20053;-59
2023/05/03 14:48:28;;;;;;;2.90;1.20;;;;;;;;;;5016336;28;20141;-56
2023/05/03 14:51:02;;;;;;;0.68;0.55;;;;;;;;;;5018700;28;20049;-58
2023/05/03 14:53:29;;;;;;;2.10;0.60;;;;;;;;;;5014808;28;20148;-58
2023/05/03 14:55:56;;;;;;;0.93;0.63;;;;;;;;;;5011627;28;20059;-63
2023/05/03 14:58:31;;;;;;;2.22;0.40;;;;;;;;;;5019566;28;20099;-62
2023/05/03 15:00:58;;;;;;;1.05;0.57;;;;;;;;;;5017683;28;20153;-63
2023/05/03 15:03:26;;;;;;;0.57;0.57;;;;;;;;;;5015544;28;20069;-63
2023/05/03 15:05:59;;;;;;;5.75;0.70;;;;;;;;;;5017794;28;20112;-59
2023/05/03 15:08:27;;;;;;;1.30;0.60;;;;;;;;;;5015696;28;20386;-55
2023/05/03 15:11:02;;;;;;;1.00;0.50;;;;;;;;;;5015196;28;20588;-51